North Vidor, Texas
Current Conditions -  °F | °C
As of 6:15 PM on Saturday 20 Dec 2014 (Local Time) from KBMT Reporting Station
Scattered Clouds Scattered Clouds  
Wind Chill: 51°   Ceiling: Unl
Heat Index: 51°   Visibility: 10mi
Dew Point: 49°   Wind: 3mph
Humidity: 94%   Direction: 320°NW
Pressure: 30.15"   Gusts: NA
Location:  30.1707°N, 94.0082°W
Report Text: KBMT 210015Z AUTO 32003KT 10SM SCT031 SCT045 10/09 A3015 RMK AO2 T01030093
Loading
Personal Weather Stations






























Interactive Weather Map New forecast layout! Learn more

10-Day Weather Forecast

Advertisements
Track Severe Weather on mobile